M I D A S
Marine Information and Data Acquisition System
Tripno 2268 of the Zeeleeuw from 2012-02-17 07:27:53 to 2012-02-17 15:06:24
Back to CruiseResearch ActivitiesStationsMapUnderway DataData graphs

EquipmentUnitsComment
TimeDGPSUTC
LatitudeDGPSDM.mWGS84
LongitudeDGPSDM.mWGS84
TemperatureSBE03/SBE38deg celciusITS90
ConductivitySBE21S/mITS90
SalinitySBE21 Practical Salinity Units
ChlorophylAChelsea fluorimeterg/lCalibrated in Aceton
Missing or incorrect values are displayed as -999
Sea surface data collected by the RV Zeeleeuw from 2012-02-17 07:02:22 to 2012-02-17 16:13:58
Time Latitude Longitude Temperature Conductivity Salinity ChlorophylA
2012-02-17 07:03:27 51°13.636 2°56.019 11.0504 0.065535 0.347846 -1.326982
2012-02-17 07:04:27 51°13.635 2°56.019 11.0432 0.065638 0.348391 -1.326982
2012-02-17 07:05:27 51°13.637 2°56.019 11.072 0.065535 0.347817 -1.326982
2012-02-17 07:06:28 51°13.636 2°56.019 11.0648 0.065638 0.348355 -1.326982
2012-02-17 07:07:27 51°13.637 2°56.018 11.0726 0.065535 0.347764 -1.326982
2012-02-17 07:08:28 51°13.637 2°56.019 11.0778 0.065638 0.348338 -1.326982
2012-02-17 07:09:27 51°13.637 2°56.019 11.0776 0.065638 0.348314 -1.326982
2012-02-17 07:10:27 51°13.637 2°56.019 11.0827 0.065638 0.348267 -1.326982
2012-02-17 07:11:28 51°13.636 2°56.019 11.0924 0.065638 0.348243 -1.326982
2012-02-17 07:12:28 51°13.636 2°56.019 11.0833 0.065638 0.348219 -1.326982
2012-02-17 07:13:27 51°13.635 2°56.019 11.0936 0.065638 0.348208 -1.326982
2012-02-17 07:14:28 51°13.635 2°56.019 11.104 0.065638 0.348196 -1.326982
2012-02-17 07:15:28 51°13.636 2°56.019 11.0913 0.065638 0.348178 -1.326982
2012-02-17 07:16:27 51°13.638 2°56.019 11.1461 0.065638 0.348172 -1.326982
2012-02-17 07:17:28 51°13.637 2°56.019 11.1528 0.065638 0.34816 -1.326982
2012-02-17 07:18:27 51°13.636 2°56.019 11.1546 0.065638 0.348154 -1.326982
2012-02-17 07:19:28 51°13.635 2°56.019 11.1668 0.065638 0.348143 -1.326982
2012-02-17 07:20:27 51°13.64 2°55.999 11.0869 0.065535 0.347581 -1.326982
2012-02-17 07:21:28 51°13.663 2°55.905 11.2957 0.065535 0.347599 -1.326982
2012-02-17 07:22:27 51°13.694 2°55.809 11.2289 0.065535 0.347569 -1.326982
2012-02-17 07:23:27 51°13.708 2°55.788 11.176 0.065535 0.347522 -1.326982
2012-02-17 07:24:28 51°13.696 2°55.761 11.2832 0.065535 0.347534 -1.326982
2012-02-17 07:25:27 51°13.712 2°55.771 11.2012 0.065432 0.346978 -1.326982
2012-02-17 07:26:27 51°13.743 2°55.742 11.1376 0.065432 0.346996 -1.326982
2012-02-17 07:27:27 51°13.81 2°55.651 11.0841 0.065432 0.346996 -1.326982
2012-02-17 07:28:27 51°13.941 2°55.55 10.9483 0.065432 0.347001 -1.326982
2012-02-17 07:29:28 51°14.094 2°55.449 10.9611 0.065432 0.347013 -1.326982
2012-02-17 07:30:27 51°14.236 2°55.325 10.9561 0.065432 0.347019 -1.326982
2012-02-17 07:31:28 51°14.378 2°55.184 6.0591 0.185534 1.022129 -0.666862
2012-02-17 07:32:28 51°14.527 2°55.043 3.1808 2.815528 28.926661 -0.981205
2012-02-17 07:33:27 51°14.709 2°54.908 2.9868 2.613462 27.826315 -0.918336
2012-02-17 07:34:25 51°14.914 2°54.874 2.6072 2.653564 28.606374 -0.698296
2012-02-17 07:35:25 51°15.13 2°54.961 2.5641 2.672066 29.010383 -0.698296
2012-02-17 07:36:24 51°15.333 2°55.111 2.4835 2.670207 29.102499 -0.572559
2012-02-17 07:37:24 51°15.528 2°55.303 2.4557 2.687261 29.349027 -0.541125
2012-02-17 07:38:24 51°15.693 2°55.562 2.4422 2.678373 29.267711 -0.572559
2012-02-17 07:39:24 51°15.849 2°55.833 2.4266 2.674135 29.236791 -0.415388
2012-02-17 07:40:24 51°15.991 2°56.128 2.4486 2.670828 29.214303 -0.35252
2012-02-17 07:41:24 51°16.126 2°56.43 2.4593 2.661216 29.085049 -0.415388
2012-02-17 07:42:24 51°16.248 2°56.741 2.4809 2.596313 28.301598 -0.446822
2012-02-17 07:43:24 51°16.335 2°57.084 2.4746 2.559525 27.856906 -0.415388
2012-02-17 07:44:24 51°16.423 2°57.431 2.4752 2.419115 26.191533 -0.289651
2012-02-17 07:45:24 51°16.515 2°57.774 2.4484 2.245183 24.142068 -0.226782
2012-02-17 07:46:25 51°16.639 2°58.097 2.4354 2.066046 22.059279 -0.289651
2012-02-17 07:47:24 51°16.777 2°58.389 2.4617 1.858288 19.65561 -0.35252
2012-02-17 07:48:24 51°16.92 2°58.688 2.5154 1.830016 19.310325 -0.446822
2012-02-17 07:49:24 51°17.058 2°58.995 2.5272 1.811547 19.067955 -0.35252
2012-02-17 07:50:24 51°17.188 2°59.31 2.4814 1.854677 19.574912 -0.069611
2012-02-17 07:51:24 51°17.326 2°59.617 2.4628 1.829397 19.309837 -0.101045
2012-02-17 07:52:24 51°17.463 2°59.925 2.4659 1.863964 19.715457 -0.289651
2012-02-17 07:53:23 51°17.587 3°0.238 2.4605 1.828572 19.310592 -0.13248
2012-02-17 07:54:24 51°17.726 3°0.553 2.46 1.806904 19.064626 -0.226782
2012-02-17 07:55:24 51°17.857 3°0.874 2.4665 1.814952 19.155869 -0.195348
2012-02-17 07:56:25 51°18.002 3°1.185 2.4817 1.835897 19.396044 -0.13248
2012-02-17 07:57:24 51°18.138 3°1.495 2.4863 1.823516 19.245267 -0.446822
2012-02-17 07:58:24 51°18.286 3°1.8 2.4916 1.844462 19.483633 -0.289651
2012-02-17 07:59:24 51°18.429 3°2.112 2.5005 1.823206 19.23991 -0.35252
2012-02-17 08:00:24 51°18.562 3°2.432 2.4908 1.796174 18.923134 -0.35252
2012-02-17 08:01:24 51°18.702 3°2.742 2.4721 1.782349 18.767039 -0.069611
2012-02-17 08:02:24 51°18.842 3°3.048 2.4778 1.786373 18.823711 -0.006743
2012-02-17 08:03:24 51°18.972 3°3.356 2.4927 1.772032 18.655279 0.433337
2012-02-17 08:04:25 51°19.121 3°3.646 2.5143 1.784309 18.789498 0.904851
2012-02-17 08:05:24 51°19.25 3°3.939 2.5208 1.771103 18.627209 0.401903
2012-02-17 08:06:23 51°19.39 3°4.221 2.5427 1.787301 18.809703 0.339034
2012-02-17 08:07:23 51°19.516 3°4.536 2.5212 1.789983 18.83925 0.401903
2012-02-17 08:08:23 51°19.631 3°4.871 2.5224 1.803086 18.992336 0.213297
2012-02-17 08:09:23 51°19.756 3°5.199 2.524 1.783174 18.76245 -0.006743
2012-02-17 08:10:23 51°19.881 3°5.522 2.5342 2.752486 30.168995 -0.163914
2012-02-17 08:11:23 51°20.015 3°5.832 2.5438 2.750832 30.131194 0.056126
2012-02-17 08:12:23 51°20.132 3°6.156 2.5463 2.748351 30.10595 0.52764
2012-02-17 08:13:23 51°20.258 3°6.469 2.5533 2.746594 30.080066 0.684811
2012-02-17 08:14:23 51°20.391 3°6.774 2.5754 2.746697 30.071016 0.52764
2012-02-17 08:15:23 51°20.512 3°7.099 2.5955 2.749488 30.084077 0.684811
2012-02-17 08:16:23 51°20.631 3°7.428 2.6139 2.753003 30.105842 0.621943
2012-02-17 08:17:23 51°20.739 3°7.77 2.6364 2.757448 30.141594 0.496206
2012-02-17 08:18:23 51°20.851 3°8.11 2.6368 2.760445 30.161771 0.276166
2012-02-17 08:19:23 51°20.968 3°8.441 2.6369 2.760549 30.163015 0.370468
2012-02-17 08:20:23 51°21.046 3°8.677 2.6449 2.761169 30.168608 0.590508
2012-02-17 08:21:23 51°21.115 3°8.761 2.6532 2.764167 30.203756 0.339034
2012-02-17 08:22:23 51°21.174 3°8.8 2.6594 2.766648 30.230809 0.496206
2012-02-17 08:23:23 51°21.218 3°8.819 2.662 2.768715 30.251005 0.496206
2012-02-17 08:24:23 51°21.252 3°8.824 2.6673 2.770163 30.264671 0.559074
2012-02-17 08:25:23 51°21.283 3°8.715 2.6715 2.77161 30.278335 0.716245
2012-02-17 08:26:23 51°21.381 3°8.492 2.681 2.774091 30.298801 0.621943
2012-02-17 08:27:23 51°21.507 3°8.252 2.689 2.777812 30.338886 0.873417
2012-02-17 08:28:23 51°21.604 3°7.989 2.6852 2.782258 30.389561 1.093456
2012-02-17 08:29:23 51°21.671 3°7.706 2.6548 2.783809 30.422373 0.684811
2012-02-17 08:30:23 51°21.721 3°7.415 2.6445 2.781638 30.417931 0.559074
2012-02-17 08:31:23 51°21.786 3°7.136 2.646 2.779984 30.399888 0.464771
2012-02-17 08:32:23 51°21.81 3°6.853 2.6469 2.774505 30.335761 0.370468
2012-02-17 08:33:23 51°21.817 3°6.567 2.64 2.767888 30.254192 -0.069611
2012-02-17 08:34:23 51°21.833 3°6.279 2.6245 2.763857 30.215965 0.118994
2012-02-17 08:35:23 51°21.866 3°5.992 2.6071 2.760239 30.182703 0.150429
2012-02-17 08:36:23 51°21.893 3°5.7 2.5919 2.757551 30.169073 0.181863
2012-02-17 08:37:23 51°21.904 3°5.409 2.578 2.757861 30.186886 0.181863
2012-02-17 08:38:23 51°21.923 3°5.121 2.5766 2.758999 30.208113 0.08756
2012-02-17 08:39:23 51°21.954 3°4.833 2.568 2.759929 30.229679 -0.038177
2012-02-17 08:40:23 51°21.967 3°4.543 2.5627 2.762203 30.260888 -0.038177
2012-02-17 08:41:23 51°21.989 3°4.255 2.5597 2.767579 30.329548 -0.006743
2012-02-17 08:42:23 51°22.034 3°3.969 2.5518 2.773988 30.411678 0.024692
2012-02-17 08:43:23 51°22.069 3°3.681 2.5402 2.783396 30.531043 0.08756
2012-02-17 08:44:23 51°22.091 3°3.391 2.5449 2.794251 30.669928 -0.13248
2012-02-17 08:45:23 51°22.132 3°3.101 2.56 2.802315 30.757915 0.08756
2012-02-17 08:46:23 51°22.16 3°2.808 2.5786 2.808311 30.819913 -0.006743
2012-02-17 08:47:23 51°22.186 3°2.516 2.5956 2.810172 30.824197 -0.226782
2012-02-17 08:48:23 51°22.227 3°2.227 2.5983 2.814307 30.862685 -0.195348
2012-02-17 08:49:23 51°22.25 3°1.937 2.6097 2.813067 30.842891 -0.35252
2012-02-17 08:50:23 51°22.283 3°1.647 2.6085 2.81255 30.828017 -0.541125
2012-02-17 08:51:23 51°22.314 3°1.36 2.6106 2.814617 30.850127 -0.415388
2012-02-17 08:52:23 51°22.335 3°1.07 2.6108 2.815444 30.860121 -0.509691
2012-02-17 08:53:24 51°22.381 3°0.777 2.6015 2.818133 30.896446 -0.541125
2012-02-17 08:54:23 51°22.42 3°0.495 2.5911 2.816995 30.896145 -0.572559
2012-02-17 08:55:23 51°22.447 3°0.205 2.5825 2.814721 30.878247 -0.603994
2012-02-17 08:56:23 51°22.486 2°59.916 2.5653 2.812033 30.852459 -0.698296
2012-02-17 08:57:23 51°22.514 2°59.626 2.5526 2.806967 30.807491 -0.635428
2012-02-17 08:58:23 51°22.553 2°59.338 2.5501 2.805727 30.800153 -0.603994
2012-02-17 08:59:23 51°22.583 2°59.049 2.541 2.802729 30.767709 -0.635428
2012-02-17 09:00:24 51°22.621 2°58.757 2.5277 2.800661 30.754184 -0.572559
2012-02-17 09:01:23 51°22.656 2°58.472 2.5234 2.79818 30.733731 -0.572559
2012-02-17 09:02:23 51°22.706 2°58.186 2.5298 2.797973 30.731228 -0.666862
2012-02-17 09:03:23 51°22.74 2°57.895 2.5396 2.800144 30.753677 -0.635428
2012-02-17 09:04:23 51°22.765 2°57.6 2.5406 2.809552 30.857015 -0.478257
2012-02-17 09:05:23 51°22.813 2°57.307 2.5455 2.814411 30.914889 -0.478257
2012-02-17 09:06:23 51°22.921 2°57.051 2.5637 2.816582 30.934436 -0.446822
2012-02-17 09:07:24 51°23.061 2°56.821 2.5543 2.81896 30.950699 -0.415388
2012-02-17 09:08:23 51°23.184 2°56.584 2.559 2.819167 30.959949 -0.541125
2012-02-17 09:09:24 51°23.254 2°56.302 2.5761 2.821648 30.982276 -0.541125
2012-02-17 09:10:23 51°23.282 2°56.011 2.5917 2.823199 30.985618 -0.572559
2012-02-17 09:11:23 51°23.319 2°55.718 2.584 2.825163 30.996853 -0.541125
2012-02-17 09:12:23 51°23.368 2°55.429 2.5755 2.822579 30.978112 -0.478257
2012-02-17 09:13:23 51°23.407 2°55.138 2.5697 2.817306 30.9249 -0.446822
2012-02-17 09:14:23 51°23.426 2°54.843 2.5668 2.816375 30.91364 -0.509691
2012-02-17 09:15:23 51°23.457 2°54.549 2.565 2.816375 30.912678 -0.415388
2012-02-17 09:16:23 51°23.475 2°54.253 2.5772 2.815858 30.909309 -0.572559
2012-02-17 09:17:23 51°23.515 2°53.96 2.5751 2.816685 30.910659 -0.415388
2012-02-17 09:18:24 51°23.541 2°53.664 2.5919 2.815858 30.897768 -0.541125
2012-02-17 09:19:23 51°23.574 2°53.375 2.6221 2.817099 30.893553 -0.635428
2012-02-17 09:20:23 51°23.586 2°53.082 2.66 2.824026 30.945563 -0.603994
2012-02-17 09:21:23 51°23.591 2°52.789 2.6752 2.830435 30.99318 -0.635428
2012-02-17 09:22:23 51°23.612 2°52.497 2.6982 2.83364 31.019369 -0.572559
2012-02-17 09:23:23 51°23.623 2°52.204 2.726 2.840154 31.068138 -0.603994
2012-02-17 09:24:23 51°23.631 2°51.912 2.6981 2.842325 31.085664 -0.509691
2012-02-17 09:25:23 51°23.641 2°51.619 2.7018 2.837362 31.043121 -0.666862
2012-02-17 09:26:23 51°23.653 2°51.326 2.7202 2.83881 31.052887 -0.603994
2012-02-17 09:27:23 51°23.664 2°51.034 2.7247 2.842221 31.078641 -0.603994
2012-02-17 09:28:23 51°23.67 2°50.745 2.6953 2.83912 31.05278 -0.572559
2012-02-17 09:29:23 51°23.683 2°50.457 2.7016 2.835088 31.014718 -0.603994
2012-02-17 09:30:23 51°23.708 2°50.168 2.6926 2.834157 31.007337 -0.572559
2012-02-17 09:31:23 51°23.713 2°49.88 2.6767 2.830228 30.970503 -0.635428
2012-02-17 09:32:23 51°23.735 2°49.594 2.6421 2.825886 30.932501 -0.666862
2012-02-17 09:33:23 51°23.746 2°49.308 2.6128 2.817099 30.86668 -0.666862
2012-02-17 09:34:23 51°23.732 2°49.026 2.614 2.812653 30.82735 -0.603994
2012-02-17 09:35:23 51°23.702 2°48.746 2.6362 2.813894 30.832758 -0.698296
2012-02-17 09:36:23 51°23.69 2°48.459 2.6527 2.817305 30.857675 -0.572559
2012-02-17 09:37:23 51°23.66 2°48.177 2.6785 2.819269 30.864145 -0.698296
2012-02-17 09:38:23 51°23.646 2°47.888 2.7503 2.826299 30.908728 -0.666862
2012-02-17 09:39:23 51°23.633 2°47.599 2.8145 2.841084 31.019778 -0.792599
2012-02-17 09:40:23 51°23.607 2°47.313 2.8399 2.852457 31.106744 -0.635428
2012-02-17 09:41:23 51°23.587 2°47.025 2.83 2.855041 31.119585 -0.666862
2012-02-17 09:42:23 51°23.559 2°46.738 2.8208 2.849872 31.077574 -0.729731
2012-02-17 09:43:23 51°23.553 2°46.445 2.854 2.848011 31.050398 -0.729731
2012-02-17 09:44:23 51°23.561 2°46.144 2.9376 2.854421 31.089109 -0.635428
2012-02-17 09:45:23 51°23.557 2°45.848 3.0665 2.872928 31.206708 -0.729731
2012-02-17 09:46:23 51°23.544 2°45.552 3.1579 2.892056 31.32829 -0.761165
2012-02-17 09:47:23 51°23.545 2°45.26 3.2124 2.904981 31.400208 -0.541125
2012-02-17 09:48:23 51°23.534 2°44.97 3.2333 2.908806 31.408472 -0.729731
2012-02-17 09:49:23 51°23.527 2°44.679 3.2775 2.911288 31.411243 -0.666862
2012-02-17 09:50:24 51°23.513 2°44.385 3.3452 2.918009 31.444383 -0.729731
2012-02-17 09:51:23 51°23.524 2°44.097 3.4092 2.929073 31.508021 -0.666862
2012-02-17 09:52:24 51°23.524 2°43.8 3.4277 2.936622 31.551748 -0.666862
2012-02-17 09:53:23 51°23.51 2°43.515 3.446 2.939414 31.562885 -0.792599
2012-02-17 09:54:23 51°23.512 2°43.222 3.4445 2.939 31.547476 -0.792599
2012-02-17 09:55:24 51°23.513 2°42.922 3.4698 2.93869 31.539982 -0.792599
2012-02-17 09:56:23 51°23.499 2°42.632 3.5247 2.943033 31.559952 -0.824033
2012-02-17 09:57:24 51°23.498 2°42.329 3.6081 2.95296 31.614483 -0.792599
2012-02-17 09:58:23 51°23.499 2°42.034 3.7121 2.966093 31.688595 -0.729731
2012-02-17 09:59:24 51°23.49 2°41.731 3.8677 2.98357 31.783101 -0.698296
2012-02-17 10:00:23 51°23.484 2°41.439 3.9529 3.006632 31.914132 -0.698296
2012-02-17 10:01:24 51°23.48 2°41.138 3.9823 3.016561 31.970561 -0.698296
2012-02-17 10:02:23 51°23.496 2°40.849 3.9787 3.020594 31.990203 -0.729731
2012-02-17 10:03:23 51°23.493 2°40.561 3.9259 3.014802 31.949015 -0.729731
2012-02-17 10:04:23 51°23.514 2°40.273 3.8656 3.006735 31.899171 -0.635428
2012-02-17 10:05:23 51°23.52 2°39.984 3.8248 2.99598 31.828124 -0.886902
2012-02-17 10:06:24 51°23.531 2°39.69 3.7951 2.989671 31.787304 -0.855468
2012-02-17 10:07:24 51°23.548 2°39.401 3.7683 2.9845 31.753145 -0.761165
2012-02-17 10:08:24 51°23.558 2°39.112 3.7415 2.97995 31.727195 -0.855468
2012-02-17 10:09:24 51°23.551 2°38.823 3.8465 2.976537 31.686107 -0.792599
2012-02-17 10:10:24 51°23.555 2°38.532 3.8457 2.993808 31.798832 -0.698296
2012-02-17 10:11:23 51°23.568 2°38.246 3.8226 2.993601 31.801152 -0.698296
2012-02-17 10:12:24 51°23.563 2°37.952 3.8071 2.987189 31.759096 -0.761165
2012-02-17 10:13:24 51°23.574 2°37.661 3.7873 2.984914 31.738065 -0.824033
2012-02-17 10:14:24 51°23.576 2°37.37 3.7723 2.979019 31.703903 -0.666862
2012-02-17 10:15:24 51°23.577 2°37.076 3.8841 2.979329 31.695216 -0.792599
2012-02-17 10:16:23 51°23.575 2°36.784 4.0542 3.004563 31.844283 -0.666862
2012-02-17 10:17:24 51°23.588 2°36.475 4.2508 3.032177 32.01162 -0.635428
2012-02-17 10:18:24 51°23.582 2°36.173 4.3696 3.065689 32.223606 -0.666862
2012-02-17 10:19:24 51°23.587 2°35.877 4.3805 3.081825 32.322732 -0.635428
2012-02-17 10:20:24 51°23.598 2°35.583 4.3817 3.080273 32.312323 -0.603994
2012-02-17 10:21:24 51°23.591 2°35.291 4.3685 3.073756 32.231038 -0.729731
2012-02-17 10:22:24 51°23.586 2°35.002 4.355 3.07117 32.219026 -0.666862
2012-02-17 10:23:23 51°23.589 2°34.713 4.3732 3.069102 32.196916 -0.603994
2012-02-17 10:24:24 51°23.599 2°34.411 4.4324 3.072204 32.202641 -0.541125
2012-02-17 10:25:23 51°23.599 2°34.117 4.5075 3.081514 32.250947 -0.541125
2012-02-17 10:26:24 51°23.542 2°33.837 4.5756 3.09434 32.32278 -0.603994
2012-02-17 10:27:23 51°23.462 2°33.578 4.5995 3.101891 32.360884 -0.572559
2012-02-17 10:28:23 51°23.433 2°33.286 4.615 3.104787 32.372595 -0.635428
2012-02-17 10:29:24 51°23.42 2°32.983 4.634 3.108304 32.399005 -0.572559
2012-02-17 10:30:23 51°23.452 2°32.691 4.6395 3.110994 32.408304 -0.635428
2012-02-17 10:31:24 51°23.489 2°32.391 4.5909 3.109546 32.404823 -0.509691
2012-02-17 10:32:23 51°23.512 2°32.1 4.5469 3.100546 32.34725 -0.635428
2012-02-17 10:33:24 51°23.538 2°31.799 4.5327 3.093409 32.300694 -0.729731
2012-02-17 10:34:24 51°23.567 2°31.504 4.5174 3.090305 32.27522 -0.698296
2012-02-17 10:35:24 51°23.589 2°31.208 4.529 3.087202 32.250679 -0.729731
2012-02-17 10:36:24 51°23.621 2°30.911 4.6034 3.09196 32.276422 -0.698296
2012-02-17 10:37:24 51°23.649 2°30.612 4.7035 3.105097 32.348823 -0.666862
2012-02-17 10:38:24 51°23.669 2°30.37 4.7484 3.121234 32.447016 -0.635428
2012-02-17 10:39:24 51°23.694 2°30.233 4.7465 3.126924 32.486061 -0.603994
2012-02-17 10:40:24 51°23.683 2°30.099 4.737 3.125372 32.473874 -0.666862
2012-02-17 10:41:23 51°23.657 2°29.869 4.7285 3.122786 32.45073 -0.698296
2012-02-17 10:42:24 51°23.695 2°29.753 4.722 3.119993 32.428025 -0.729731
2012-02-17 10:43:23 51°23.726 2°29.749 4.7274 3.119062 32.4192 -0.635428
2012-02-17 10:44:27 51°23.738 2°29.79 4.7318 3.119269 32.418755 -0.666862
2012-02-17 10:45:25 51°23.748 2°29.827 4.7337 3.119993 32.423317 -0.666862
2012-02-17 10:46:24 51°23.758 2°29.864 4.7345 3.120924 32.432141 -0.572559
2012-02-17 10:47:24 51°23.77 2°29.901 4.7403 3.111717 32.322529 -0.698296
2012-02-17 10:48:23 51°23.778 2°29.936 4.7401 3.112027 32.323281 -0.603994
2012-02-17 10:49:25 51°23.767 2°29.961 4.7381 3.111717 32.3169 -0.603994
2012-02-17 10:50:27 51°23.738 2°29.964 4.7347 3.103234 32.220375 -0.635428
2012-02-17 10:51:27 51°23.709 2°29.945 4.7363 3.101269 32.201537 -0.635428
2012-02-17 10:52:27 51°23.707 2°29.952 4.7331 3.100027 32.187277 -0.635428
2012-02-17 10:53:26 51°23.759 2°29.973 4.7373 3.098372 32.171068 -0.666862
2012-02-17 10:54:24 51°23.783 2°29.919 4.7438 3.099096 32.174715 -0.635428
2012-02-17 10:55:23 51°23.743 2°29.873 4.7476 3.098682 32.164361 -0.635428
2012-02-17 10:56:23 51°23.722 2°29.79 4.7574 3.098786 32.156216 -0.698296
2012-02-17 10:57:24 51°23.736 2°29.75 4.7577 3.098062 32.145106 -0.698296
2012-02-17 10:58:27 51°23.738 2°29.799 4.7557 3.098786 32.151552 -0.698296
2012-02-17 10:59:26 51°23.742 2°29.847 4.7549 3.096096 32.121614 -0.635428
2012-02-17 11:00:24 51°23.748 2°29.892 4.7552 3.09382 32.098289 -0.761165
2012-02-17 11:01:23 51°23.755 2°29.934 4.7568 3.095062 32.110673 -0.761165
2012-02-17 11:02:23 51°23.777 2°29.955 4.7563 3.091234 32.064889 -0.666862
2012-02-17 11:03:24 51°23.788 2°29.912 4.7675 3.094131 32.095333 -0.729731
2012-02-17 11:04:23 51°23.741 2°29.879 4.7678 3.094544 32.092634 -0.761165
2012-02-17 11:05:24 51°23.73 2°29.823 4.7737 3.091027 32.051358 -0.729731
2012-02-17 11:06:23 51°23.735 2°29.787 4.7765 3.092475 32.062392 -0.824033
2012-02-17 11:07:23 51°23.746 2°29.801 4.7823 3.091648 32.047327 -0.729731
2012-02-17 11:08:26 51°23.757 2°29.836 4.7831 3.089165 32.017933 -0.729731
2012-02-17 11:09:27 51°23.766 2°29.91 4.7873 3.091958 32.047169 -0.729731
2012-02-17 11:10:25 51°23.774 2°29.976 4.7874 3.090303 32.025409 -0.761165
2012-02-17 11:11:23 51°23.782 2°30.035 4.7911 3.089268 32.012624 -0.635428
2012-02-17 11:12:23 51°23.796 2°30.062 4.7943 3.088751 32.003913 -0.729731
2012-02-17 11:13:24 51°23.805 2°30.03 4.7922 3.089268 32.008914 -0.761165
2012-02-17 11:14:23 51°23.795 2°29.961 4.8019 3.088751 32.003913 -0.824033
2012-02-17 11:15:23 51°23.781 2°29.927 4.8105 3.082234 31.918136 -0.792599
2012-02-17 11:16:23 51°23.774 2°29.911 4.8152 3.085751 31.951944 -0.761165
2012-02-17 11:17:23 51°23.775 2°29.908 4.8157 3.087096 31.963643 -0.824033
2012-02-17 11:18:23 51°23.778 2°29.913 4.8199 3.086682 31.957054 -0.792599
2012-02-17 11:19:23 51°23.778 2°29.918 4.8158 3.082855 31.910457 -0.792599
2012-02-17 11:20:23 51°23.758 2°29.918 4.8164 3.082751 31.910196 -0.761165
2012-02-17 11:21:23 51°23.743 2°29.929 4.8162 3.078924 31.867304 -0.761165
2012-02-17 11:22:24 51°23.736 2°29.946 4.8193 3.079545 31.876255 -0.729731
2012-02-17 11:23:24 51°23.735 2°29.972 4.8188 3.040652 31.42961 -0.666862
2012-02-17 11:24:23 51°23.742 2°30.001 4.8199 3.040755 31.429882 -0.761165
2012-02-17 11:25:24 51°23.752 2°30.035 4.8198 3.036411 31.377528 -0.729731
2012-02-17 11:26:24 51°23.762 2°30.07 4.8213 3.037859 31.396795 -0.698296
2012-02-17 11:27:23 51°23.773 2°30.104 4.8206 3.034446 31.355989 -0.603994
2012-02-17 11:28:24 51°23.784 2°30.139 4.8221 3.028654 31.288032 -0.729731
2012-02-17 11:29:23 51°23.79 2°30.175 4.8231 3.019035 31.18094 -0.635428
2012-02-17 11:30:24 51°23.785 2°30.211 4.8236 3.019655 31.185315 -0.666862
2012-02-17 11:31:23 51°23.775 2°30.231 4.8302 3.020793 31.195591 -0.635428
2012-02-17 11:32:24 51°23.767 2°30.227 4.8329 3.01769 31.157478 -0.729731
2012-02-17 11:33:23 51°23.765 2°30.189 4.8315 3.019759 31.181983 -0.729731
2012-02-17 11:34:23 51°23.755 2°30.13 4.8324 3.006727 31.033323 -0.698296
2012-02-17 11:35:24 51°23.741 2°30.076 4.8373 3.015725 31.131454 -0.666862
2012-02-17 11:36:23 51°23.743 2°30.072 4.8421 3.007761 31.032547 -0.729731
2012-02-17 11:37:24 51°23.749 2°30.076 4.8448 3.009415 31.046024 -0.698296
2012-02-17 11:38:23 51°23.76 2°30.085 4.8502 3.010553 31.056298 -0.698296
2012-02-17 11:39:23 51°23.772 2°30.1 4.8503 3.00352 30.972566 -0.635428
2012-02-17 11:40:24 51°23.787 2°30.118 4.8556 3.009726 31.040585 -0.666862
2012-02-17 11:41:23 51°23.806 2°30.126 4.86 2.997211 30.894447 -0.572559
2012-02-17 11:42:24 51°23.826 2°30.126 4.8642 3.002693 30.95419 -0.572559
2012-02-17 11:43:23 51°23.841 2°30.12 4.8688 3.004761 30.972379 -0.603994
2012-02-17 11:44:23 51°23.847 2°30.115 4.8751 2.994315 30.84899 -0.635428
2012-02-17 11:45:23 51°23.846 2°30.112 4.8786 2.992143 30.819821 -0.666862
2012-02-17 11:46:23 51°23.839 2°30.107 4.8795 2.985007 30.735087 -0.635428
2012-02-17 11:47:24 51°23.835 2°30.095 4.8826 2.988834 30.778611 -0.541125
2012-02-17 11:48:23 51°23.838 2°30.09 4.8857 2.994418 30.840366 -0.635428
2012-02-17 11:49:23 51°23.848 2°30.108 4.8879 2.957601 30.419217 -0.603994
2012-02-17 11:50:23 51°23.861 2°30.147 4.8838 2.966598 30.520532 -0.572559
2012-02-17 11:51:24 51°23.874 2°30.198 4.8845 2.982318 30.700961 -0.572559
2012-02-17 11:52:24 51°23.884 2°30.244 4.8845 2.962875 30.479999 -0.635428
2012-02-17 11:53:24 51°23.892 2°30.284 4.8819 2.954188 30.382219 -0.541125
2012-02-17 11:54:24 51°23.906 2°30.301 4.8818 2.882216 29.566422 -0.666862
2012-02-17 11:55:24 51°23.925 2°30.284 4.8869 2.904034 29.814285 -0.603994
2012-02-17 11:56:24 51°23.925 2°30.258 4.8875 2.879734 29.536639 -0.603994
2012-02-17 11:57:24 51°23.921 2°30.254 4.891 2.884904 29.590009 -0.572559
2012-02-17 11:58:24 51°23.919 2°30.262 4.8879 2.90786 29.849009 -0.509691
2012-02-17 11:59:24 51°23.897 2°30.249 4.8937 2.914271 29.923363 -0.603994
2012-02-17 12:00:24 51°23.818 2°30.124 4.9013 2.882319 29.558205 -0.572559
2012-02-17 12:01:24 51°23.759 2°30.003 4.8987 2.843132 29.107807 -0.572559
2012-02-17 12:02:24 51°23.735 2°29.966 4.8948 2.83879 29.063831 -0.541125
2012-02-17 12:03:24 51°23.72 2°29.955 4.8996 2.841788 29.095995 -0.541125
2012-02-17 12:04:24 51°23.712 2°29.958 4.9003 2.825142 28.904849 -0.603994
2012-02-17 12:05:23 51°23.71 2°29.97 4.903 2.806843 28.696929 -0.541125
2012-02-17 12:06:24 51°23.71 2°29.986 4.904 2.844683 29.121111 -0.603994
2012-02-17 12:07:23 51°23.713 2°30.005 4.909 2.822247 28.868043 -0.541125
2012-02-17 12:08:23 51°23.719 2°30.027 4.9093 2.814907 28.785305 -0.572559
2012-02-17 12:09:23 51°23.728 2°30.051 4.9082 2.798055 28.592176 -0.383954
2012-02-17 12:10:23 51°23.736 2°30.074 4.9118 2.813046 28.761015 -0.666862
2012-02-17 12:11:23 51°23.746 2°30.097 4.911 2.768178 28.256051 -0.572559
2012-02-17 12:12:24 51°23.755 2°30.119 4.913 2.77252 28.304051 -0.541125
2012-02-17 12:13:23 51°23.765 2°30.141 4.9115 2.804361 28.663189 -0.666862
2012-02-17 12:14:23 51°23.774 2°30.162 4.913 2.814597 28.776829 -0.572559
2012-02-17 12:15:24 51°23.784 2°30.184 4.9136 2.84551 29.123725 -0.698296
2012-02-17 12:16:23 51°23.793 2°30.205 4.913 2.785959 28.452753 -0.541125
2012-02-17 12:17:24 51°23.802 2°30.227 4.9106 2.795987 28.568075 -0.635428
2012-02-17 12:18:24 51°23.81 2°30.248 4.911 2.76332 28.200623 -0.729731
2012-02-17 12:19:23 51°23.815 2°30.27 4.9127 2.817078 28.804788 -0.635428
2012-02-17 12:20:23 51°23.813 2°30.291 4.9109 2.771486 28.291612 -0.635428
2012-02-17 12:21:24 51°23.802 2°30.303 4.9112 2.732928 27.860113 -0.666862
2012-02-17 12:22:23 51°23.791 2°30.303 4.9086 2.714736 27.654446 -0.635428
2012-02-17 12:23:24 51°23.786 2°30.289 4.9084 2.685174 27.327199 -0.635428
2012-02-17 12:24:24 51°23.792 2°30.264 4.9025 2.771486 28.29814 -0.572559
2012-02-17 12:25:24 51°23.804 2°30.233 4.9008 2.779033 28.382206 -0.572559
2012-02-17 12:26:24 51°23.813 2°30.195 4.9059 2.739854 27.945103 -0.603994
2012-02-17 12:27:24 51°23.815 2°30.156 4.9078 2.709361 27.601355 -0.603994
2012-02-17 12:28:23 51°23.816 2°30.115 4.9024 2.714529 27.660902 -0.666862
2012-02-17 12:29:24 51°23.818 2°30.07 4.9044 2.65148 26.954147 -0.635428
2012-02-17 12:30:24 51°23.816 2°30.026 4.9044 2.691479 27.400965 -0.698296
2012-02-17 12:31:24 51°23.808 2°29.991 4.9033 2.737477 27.915992 -0.572559
2012-02-17 12:32:24 51°23.801 2°29.975 4.9085 2.647553 26.907142 -0.541125
2012-02-17 12:33:24 51°23.799 2°29.973 4.9076 2.702229 27.51744 -0.541125
2012-02-17 12:34:24 51°23.799 2°29.982 4.9078 2.748641 28.036513 -0.572559
2012-02-17 12:35:24 51°23.799 2°29.994 4.9103 2.660575 27.050385 -0.698296
2012-02-17 12:36:24 51°23.751 2°29.936 4.9149 2.690859 27.388489 -0.572559
2012-02-17 12:37:23 51°23.706 2°29.842 4.916 2.673391 27.186687 -0.635428
2012-02-17 12:38:24 51°23.702 2°29.776 4.9096 2.629777 26.703179 -0.541125
2012-02-17 12:39:24 51°23.718 2°29.743 4.91 2.620786 26.60513 -0.478257
2012-02-17 12:40:24 51°23.742 2°29.723 4.9133 2.642385 26.847076 -0.572559
2012-02-17 12:41:24 51°23.778 2°29.694 4.9168 3.19117 33.060886 -0.478257
2012-02-17 12:42:24 51°23.814 2°29.655 4.9199 3.191584 33.061817 -0.603994
2012-02-17 12:43:23 51°23.841 2°29.629 4.9268 3.192308 33.063446 -0.572559
2012-02-17 12:44:23 51°23.861 2°29.613 4.9279 3.193136 33.070079 -0.509691
2012-02-17 12:45:24 51°23.884 2°29.591 4.9308 3.193343 33.06959 -0.541125
2012-02-17 12:46:24 51°23.915 2°29.542 4.9382 3.179375 32.904671 -0.603994
2012-02-17 12:47:24 51°23.951 2°29.478 4.9429 3.180513 32.914867 -0.603994
2012-02-17 12:48:24 51°24.021 2°29.522 4.971 3.182065 32.914615 -0.509691
2012-02-17 12:49:24 51°23.977 2°29.618 4.9695 3.186513 32.921926 -0.509691
2012-02-17 12:50:24 51°23.863 2°29.716 4.9589 3.185065 32.936645 -0.572559
2012-02-17 12:51:24 51°23.777 2°29.918 4.9603 3.183513 32.924564 -0.541125
2012-02-17 12:52:24 51°23.701 2°29.943 4.9302 3.181548 32.905842 -0.666862
2012-02-17 12:53:24 51°23.67 2°29.851 4.912 3.176892 32.884751 -0.666862
2012-02-17 12:54:24 51°23.637 2°29.686 4.9101 3.174719 32.874077 -0.572559
2012-02-17 12:55:24 51°23.639 2°29.588 4.9136 3.174926 32.8755 -0.603994
2012-02-17 12:56:24 51°23.651 2°29.555 4.9125 3.17503 32.876687 -0.603994
2012-02-17 12:57:24 51°23.659 2°29.556 4.9096 3.175133 32.876924 -0.635428
2012-02-17 12:58:23 51°23.667 2°29.561 4.9102 3.175133 32.877873 -0.635428
2012-02-17 12:59:24 51°23.675 2°29.569 4.9115 3.175133 32.876924 -0.603994
2012-02-17 13:00:24 51°23.679 2°29.577 4.9169 3.17503 32.875737 -0.541125
2012-02-17 13:01:24 51°23.683 2°29.586 4.9205 3.175547 32.874077 -0.572559
2012-02-17 13:02:24 51°23.687 2°29.595 4.9219 3.175444 32.870044 -0.603994
2012-02-17 13:03:24 51°23.69 2°29.604 4.924 3.175444 32.869096 -0.603994
2012-02-17 13:04:24 51°23.692 2°29.613 4.9235 3.175237 32.866724 -0.635428
2012-02-17 13:05:24 51°23.687 2°29.624 4.9266 3.174926 32.862218 -0.698296
2012-02-17 13:06:24 51°23.7 2°29.634 4.9244 3.174616 32.860556 -0.572559
2012-02-17 13:07:24 51°23.722 2°29.666 4.9218 3.173995 32.857234 -0.572559
2012-02-17 13:08:24 51°23.731 2°29.712 4.9217 3.173788 32.852017 -0.572559
2012-02-17 13:09:23 51°23.731 2°29.744 4.9182 3.173374 32.849169 -0.572559
2012-02-17 13:10:24 51°23.729 2°29.767 4.9172 3.172961 32.84727 -0.635428
2012-02-17 13:11:24 51°23.728 2°29.782 4.9175 3.172857 32.84324 -0.572559
2012-02-17 13:12:24 51°23.729 2°29.79 4.9142 3.172547 32.84063 -0.572559
2012-02-17 13:13:24 51°23.732 2°29.796 4.9164 3.171926 32.838253 -0.603994
2012-02-17 13:14:24 51°23.735 2°29.803 4.9156 3.171926 32.836357 -0.635428
2012-02-17 13:15:23 51°23.738 2°29.81 4.9094 3.171409 32.83327 -0.541125
2012-02-17 13:16:23 51°23.741 2°29.817 4.9127 3.171202 32.829003 -0.509691
2012-02-17 13:17:24 51°23.747 2°29.826 4.9157 3.170995 32.828526 -0.541125
2012-02-17 13:18:24 51°23.736 2°29.867 4.9201 3.171098 32.825921 -0.635428
2012-02-17 13:19:24 51°23.74 2°30.046 4.9185 3.170891 32.822602 -0.478257
2012-02-17 13:20:24 51°23.721 2°30.366 4.9106 3.170581 32.81715 -0.572559
2012-02-17 13:21:24 51°23.678 2°30.69 4.9004 3.168719 32.800539 -0.541125
2012-02-17 13:22:24 51°23.654 2°31.018 4.8861 3.166546 32.788888 -0.509691
2012-02-17 13:23:24 51°23.638 2°31.344 4.8842 3.164684 32.775109 -0.572559
2012-02-17 13:24:24 51°23.633 2°31.668 4.8561 3.163132 32.767726 -0.478257
2012-02-17 13:25:24 51°23.626 2°31.991 4.8354 3.158994 32.743917 -0.509691
2012-02-17 13:26:24 51°23.61 2°32.32 4.8136 3.154959 32.721273 -0.541125
2012-02-17 13:27:24 51°23.616 2°32.651 4.7627 3.148649 32.680978 -0.572559
2012-02-17 13:28:23 51°23.633 2°32.976 4.7395 3.141407 32.6356 -0.572559
2012-02-17 13:29:24 51°23.624 2°33.314 4.7079 3.136442 32.60309 -0.509691
2012-02-17 13:30:24 51°23.635 2°33.647 4.6808 3.131166 32.571704 -0.603994
2012-02-17 13:31:24 51°23.645 2°33.975 4.6195 3.125476 32.531726 -0.603994
2012-02-17 13:32:24 51°23.645 2°34.298 4.4417 3.109546 32.442634 -0.729731
2012-02-17 13:33:24 51°23.654 2°34.621 4.4812 3.087099 32.279683 -0.541125
2012-02-17 13:34:23 51°23.646 2°34.941 4.5007 3.086271 32.251235 -0.572559
2012-02-17 13:35:24 51°23.659 2°35.272 4.4848 3.087099 32.252312 -0.35252
2012-02-17 13:36:24 51°23.667 2°35.601 4.4569 3.083272 32.266579 -0.35252
2012-02-17 13:37:24 51°23.665 2°35.931 4.4193 3.079444 32.197755 -0.478257
2012-02-17 13:38:24 51°23.663 2°36.263 4.3801 3.07179 32.16857 -0.415388
2012-02-17 13:39:24 51°23.676 2°36.594 4.356 3.066619 32.133178 -0.603994
2012-02-17 13:40:24 51°23.67 2°36.923 4.3923 3.067342 32.120827 -0.478257
2012-02-17 13:41:24 51°23.66 2°37.249 4.4031 3.068584 32.142745 -0.415388
2012-02-17 13:42:24 51°23.666 2°37.576 4.4046 3.069411 32.157993 -0.446822
2012-02-17 13:43:24 51°23.666 2°37.906 4.4067 3.070342 32.154627 -0.383954
2012-02-17 13:44:24 51°23.66 2°38.235 4.3685 3.069618 32.147183 -0.35252
2012-02-17 13:45:24 51°23.667 2°38.564 4.3938 3.068687 32.149603 -0.415388
2012-02-17 13:46:24 51°23.667 2°38.896 4.4004 3.066412 32.145877 -0.541125
2012-02-17 13:47:24 51°23.66 2°39.227 4.3343 3.063723 32.125077 -0.321085
2012-02-17 13:48:24 51°23.663 2°39.555 4.3061 3.058861 32.097942 -0.321085
2012-02-17 13:49:24 51°23.675 2°39.881 4.2648 3.052966 32.052158 -0.478257
2012-02-17 13:50:24 51°23.657 2°40.203 4.2314 3.046346 32.01678 -0.415388
2012-02-17 13:51:24 51°23.604 2°40.521 4.187 3.039416 31.968295 -0.478257
2012-02-17 13:52:24 51°23.557 2°40.839 4.1286 3.031763 31.922631 -0.509691
2012-02-17 13:53:24 51°23.567 2°41.159 4.0789 3.022041 31.870694 -0.509691
2012-02-17 13:54:24 51°23.604 2°41.478 4.0457 3.014905 31.835585 -0.478257
2012-02-17 13:55:23 51°23.63 2°41.797 4.03 3.010561 31.796209 -0.603994
2012-02-17 13:56:24 51°23.639 2°42.127 4.0512 3.008803 31.782286 -0.572559
2012-02-17 13:57:24 51°23.655 2°42.455 4.0299 3.006424 31.776202 -0.415388
2012-02-17 13:58:24 51°23.719 2°42.755 4.0346 3.004769 31.766305 -0.478257
2012-02-17 13:59:24 51°23.865 2°42.968 4.0394 3.004666 31.760381 -0.509691
2012-02-17 14:00:24 51°24.039 2°43.127 4.0755 3.009423 31.808404 -0.446822
2012-02-17 14:01:24 51°24.211 2°43.291 3.997 3.012009 31.837663 -0.415388
2012-02-17 14:02:24 51°24.38 2°43.455 3.9521 3.0087 31.823566 -0.415388
2012-02-17 14:03:24 51°24.491 2°43.508 3.9191 3.004253 31.811283 -0.415388
2012-02-17 14:04:24 51°24.537 2°43.55 3.9067 3.000219 31.803829 -0.446822
2012-02-17 14:05:24 51°24.574 2°43.587 3.9123 2.998772 31.800132 -0.415388
2012-02-17 14:06:24 51°24.624 2°43.62 3.8961 2.997944 31.79707 -0.478257
2012-02-17 14:07:24 51°24.651 2°43.667 3.9044 2.998151 31.794755 -0.478257
2012-02-17 14:08:24 51°24.665 2°43.7 3.9252 2.999909 31.806827 -0.35252
2012-02-17 14:09:24 51°24.672 2°43.711 3.9235 3.000943 31.811362 -0.635428
2012-02-17 14:10:24 51°24.675 2°43.718 3.9241 3.002494 31.801117 -0.698296
2012-02-17 14:11:24 51°24.678 2°43.724 3.9143 3.001047 31.790793 -0.761165
2012-02-17 14:12:24 51°24.676 2°43.72 3.9251 2.998668 31.779031 -0.698296
2012-02-17 14:13:24 51°24.676 2°43.719 3.8882 2.997634 31.767866 -0.509691
2012-02-17 14:14:24 51°24.678 2°43.718 3.8788 2.996082 31.762945 -0.635428
2012-02-17 14:15:24 51°24.681 2°43.716 3.8808 2.993394 31.757944 -0.698296
2012-02-17 14:16:24 51°24.675 2°43.711 3.8579 2.99329 31.743478 -0.666862
2012-02-17 14:17:24 51°24.664 2°43.706 3.8293 2.990601 31.741305 -0.603994
2012-02-17 14:18:24 51°24.656 2°43.701 3.8237 2.98843 31.733828 -0.698296
2012-02-17 14:19:24 51°24.658 2°43.699 3.8278 2.986878 31.725101 -0.698296
2012-02-17 14:20:24 51°24.666 2°43.696 3.816 2.986465 31.724984 -0.698296
2012-02-17 14:21:24 51°24.68 2°43.699 3.8214 2.985431 31.716636 -0.729731
2012-02-17 14:22:24 51°24.676 2°43.689 3.8135 2.985431 31.711899 -0.635428
2012-02-17 14:23:27 51°24.666 2°43.673 3.8182 2.984603 31.705978 -0.698296
2012-02-17 14:24:26 51°24.662 2°43.69 3.8134 2.983983 31.693014 -0.635428
2012-02-17 14:25:24 51°24.657 2°43.714 3.8098 2.982225 31.678062 -0.729731
2012-02-17 14:26:24 51°24.662 2°43.737 3.811 2.981397 31.673084 -0.761165
2012-02-17 14:27:24 51°24.663 2°43.737 3.812 2.980777 31.662963 -0.855468
2012-02-17 14:28:24 51°24.661 2°43.734 3.8156 2.980363 31.658109 -0.729731
2012-02-17 14:29:24 51°24.662 2°43.733 3.8149 2.979018 31.639497 -0.635428
2012-02-17 14:30:24 51°24.664 2°43.734 3.7943 2.977571 31.629124 -0.541125
2012-02-17 14:31:24 51°24.668 2°43.733 3.7887 2.975916 31.619155 -0.666862
2012-02-17 14:32:24 51°24.672 2°43.731 3.7922 2.975089 31.609444 -0.761165
2012-02-17 14:33:24 51°24.673 2°43.726 3.8059 2.974572 31.60432 -0.635428
2012-02-17 14:34:24 51°24.672 2°43.722 3.8058 2.976019 31.592042 -0.855468
2012-02-17 14:35:24 51°24.669 2°43.717 3.7922 2.974778 31.594471 -0.666862
2012-02-17 14:36:24 51°24.665 2°43.713 3.7897 2.973434 31.58908 -0.698296
2012-02-17 14:37:24 51°24.66 2°43.709 3.7917 2.972607 31.580315 -0.729731
2012-02-17 14:38:24 51°24.656 2°43.705 3.7879 2.971986 31.573977 -0.761165
2012-02-17 14:39:24 51°24.669 2°43.7 3.7838 2.971366 31.566695 -0.761165
2012-02-17 14:40:24 51°24.672 2°43.694 3.7846 2.971055 31.565885 -0.603994
2012-02-17 14:41:27 51°24.654 2°43.675 3.7852 2.970538 31.56076 -0.509691
2012-02-17 14:42:27 51°24.658 2°43.691 3.7878 2.965471 31.500355 -0.761165
2012-02-17 14:43:25 51°24.667 2°43.706 3.7807 2.96485 31.490251 -0.729731
2012-02-17 14:44:24 51°24.676 2°43.712 3.7705 2.963713 31.491025 -0.603994
2012-02-17 14:45:24 51°24.68 2°43.71 3.7853 2.962161 31.478469 -0.541125
2012-02-17 14:46:24 51°24.678 2°43.704 3.7961 2.963092 31.464926 -0.666862
2012-02-17 14:47:24 51°24.675 2°43.698 3.7835 2.966712 31.50644 -0.635428
2012-02-17 14:48:24 51°24.671 2°43.691 3.7693 2.961231 31.464722 -0.635428
2012-02-17 14:49:24 51°24.664 2°43.685 3.761 2.961231 31.474134 -0.603994
2012-02-17 14:50:24 51°24.656 2°43.681 3.7647 2.957508 31.436077 -0.635428
2012-02-17 14:51:24 51°24.646 2°43.678 3.7702 2.950786 31.352492 -0.698296
2012-02-17 14:52:24 51°24.638 2°43.676 3.714 2.947994 31.34036 -0.698296
2012-02-17 14:53:24 51°24.647 2°43.68 3.7101 2.939824 31.276308 -0.541125
2012-02-17 14:54:24 51°24.663 2°43.729 3.739 2.945098 31.330757 -0.824033
2012-02-17 14:55:24 51°24.627 2°43.803 3.6603 2.939928 31.277523 -0.824033
2012-02-17 14:56:24 51°24.513 2°43.931 3.6031 2.931035 31.2358 -0.886902
2012-02-17 14:57:24 51°24.352 2°44.119 3.5602 2.926485 31.226352 -0.918336
2012-02-17 14:58:23 51°24.186 2°44.3 3.4494 2.914284 31.131354 -0.94977
2012-02-17 14:59:24 51°24.029 2°44.512 3.3165 2.901049 31.079286 -0.886902
2012-02-17 15:00:23 51°23.873 2°44.71 3.2577 2.885436 31.005386 -0.918336
2012-02-17 15:01:24 51°23.703 2°44.901 3.145 2.871581 30.911533 -0.855468
2012-02-17 15:02:24 51°23.549 2°45.113 3.0853 2.856589 30.829234 -0.824033
2012-02-17 15:03:23 51°23.403 2°45.333 3.1107 2.850696 30.803282 -1.012639
2012-02-17 15:04:24 51°23.243 2°45.548 3.1482 2.854004 30.791887 -0.886902
2012-02-17 15:05:23 51°23.086 2°45.754 3.1184 2.85721 30.830031 -0.886902
2012-02-17 15:06:24 51°22.92 2°45.952 3.067 2.853281 30.809601 -0.886902
2012-02-17 15:07:23 51°22.722 2°46.039 3.0461 2.847905 30.779425 -0.981205
2012-02-17 15:08:24 51°22.507 2°46.08 3.0461 2.841184 30.738816 -1.012639
2012-02-17 15:09:24 51°22.299 2°46.135 3.0692 2.842011 30.725164 -0.855468
2012-02-17 15:10:24 51°22.092 2°46.194 2.996 2.83922 30.704098 -0.981205
2012-02-17 15:11:24 51°21.887 2°46.261 2.9577 2.829295 30.646742 -1.012639
2012-02-17 15:12:24 51°21.689 2°46.37 2.9339 2.824022 30.611947 -1.012639
2012-02-17 15:13:24 51°21.493 2°46.483 2.9322 2.820197 30.5775 -0.981205
2012-02-17 15:14:24 51°21.3 2°46.601 2.9284 2.816889 30.551096 -0.94977
2012-02-17 15:15:24 51°21.13 2°46.781 2.9042 2.813374 30.512822 -1.012639
2012-02-17 15:16:24 51°20.961 2°46.967 2.8834 2.807067 30.455219 -1.044073
2012-02-17 15:17:24 51°20.787 2°47.145 2.8421 2.801795 30.409006 -1.012639
2012-02-17 15:18:24 51°20.61 2°47.314 2.7156 2.796419 30.379293 -1.075508
2012-02-17 15:19:24 51°20.442 2°47.498 2.6702 2.777812 30.273189 -1.012639
2012-02-17 15:20:24 51°20.292 2°47.724 2.5603 2.761479 30.141471 -0.981205
2012-02-17 15:21:24 51°20.133 2°47.941 2.5135 2.747937 30.060717 -1.012639
2012-02-17 15:22:24 51°19.977 2°48.153 2.4189 2.740289 30.03581 -0.94977
2012-02-17 15:23:23 51°19.818 2°48.356 2.4325 1.901183 17.188543 2.00505
2012-02-17 15:24:24 51°19.655 2°48.566 2.4405 0.258053 2.088202 2.00505
2012-02-17 15:25:24 51°19.505 2°48.782 2.3513 0.091244 0.702193 2.130787
2012-02-17 15:26:24 51°19.345 2°48.986 2.3834 0.055256 0.418241 2.382261
2012-02-17 15:27:24 51°19.185 2°49.185 2.3969 0.048367 0.365545 2.350827
2012-02-17 15:28:24 51°19.032 2°49.395 2.4081 0.045899 0.343141 2.570867
2012-02-17 15:29:24 51°18.87 2°49.586 2.4013 0.045899 0.341987 3.639632
2012-02-17 15:30:23 51°18.719 2°49.789 2.3895 0.046825 0.349302 3.796803
2012-02-17 15:31:24 51°18.561 2°50.002 2.4398 0.047544 0.355018 3.230986
2012-02-17 15:32:23 51°18.404 2°50.203 2.54 0.04847 0.362281 3.262421
2012-02-17 15:33:24 51°18.236 2°50.406 2.5931 0.049292 0.369206 3.199552
2012-02-17 15:34:23 51°18.083 2°50.618 2.7474 0.050012 0.374478 3.010946
2012-02-17 15:35:24 51°17.93 2°50.843 2.8251 0.050629 0.379559 2.916644
2012-02-17 15:36:23 51°17.785 2°51.066 2.8398 0.050835 0.381466 2.979512
2012-02-17 15:37:24 51°17.635 2°51.294 2.8309 0.05104 0.383192 3.073815
2012-02-17 15:38:24 51°17.486 2°51.517 2.8259 0.051246 0.38458 3.230986
2012-02-17 15:39:24 51°17.325 2°51.729 2.7398 0.051451 0.385896 3.388158
2012-02-17 15:40:23 51°17.177 2°51.951 2.7227 0.051554 0.386429 3.356723
2012-02-17 15:41:24 51°17.021 2°52.178 2.4941 0.051451 0.385588 3.388158
2012-02-17 15:42:24 51°16.868 2°52.397 2.4201 0.051349 0.384797 3.891106
2012-02-17 15:43:24 51°16.708 2°52.608 2.3842 0.051143 0.383064 4.456922
2012-02-17 15:44:24 51°16.557 2°52.837 2.3758 0.05104 0.382193 4.771265
2012-02-17 15:45:24 51°16.409 2°53.068 2.3842 0.050835 0.380583 4.739831
2012-02-17 15:46:24 51°16.254 2°53.283 2.4101 0.050629 0.378914 4.205448
2012-02-17 15:47:24 51°16.109 2°53.508 2.455 0.050423 0.377265 3.545329
2012-02-17 15:48:24 51°15.944 2°53.698 2.4879 0.05032 0.376446 3.545329
2012-02-17 15:49:24 51°15.765 2°53.863 2.5612 0.05032 0.376436 3.765369
2012-02-17 15:50:24 51°15.595 2°54.044 2.5519 0.050115 0.374759 3.451026
2012-02-17 15:51:23 51°15.418 2°54.194 2.6265 0.050012 0.373841 3.168118
2012-02-17 15:52:24 51°15.223 2°54.321 2.658 0.049806 0.372166 3.230986
2012-02-17 15:53:23 51°15.042 2°54.465 2.6525 0.049601 0.370423 3.796803
2012-02-17 15:54:27 51°14.858 2°54.645 2.5859 0.049498 0.369586 6.500149
2012-02-17 15:55:26 51°14.692 2°54.817 2.8447 0.049498 0.369459 7.191703
2012-02-17 15:56:25 51°14.526 2°54.991 3.1608 0.05032 0.375778 -1.232679
2012-02-17 15:57:25 51°14.361 2°55.177 3.2882 0.05032 0.375748 -1.232679
2012-02-17 15:58:27 51°14.199 2°55.348 3.4223 0.050218 0.374891 -1.232679
2012-02-17 15:59:27 51°14.085 2°55.444 3.5281 0.050012 0.373207 -1.232679
2012-02-17 16:00:28 51°13.989 2°55.513 3.6321 0.049806 0.371525 -1.232679
2012-02-17 16:01:27 51°13.899 2°55.575 3.72 0.049704 0.370651 -1.232679
2012-02-17 16:02:28 51°13.817 2°55.642 3.8487 0.049498 0.36898 -1.232679
2012-02-17 16:03:27 51°13.756 2°55.717 3.9726 0.049395 0.368106 -1.232679
2012-02-17 16:04:28 51°13.711 2°55.804 4.0568 0.049292 0.367253 -1.232679
2012-02-17 16:05:27 51°13.679 2°55.874 4.1503 0.049189 0.366312 -1.232679
2012-02-17 16:06:27 51°13.656 2°55.927 4.3094 0.049087 0.365372 -1.232679
2012-02-17 16:07:27 51°13.644 2°55.977 4.4067 0.048984 0.364481 -1.232679
2012-02-17 16:08:27 51°13.642 2°56.004 4.4588 0.048881 0.363495 -1.232679
2012-02-17 16:09:28 51°13.639 2°56.014 4.553 0.048778 0.362548 -1.232679
2012-02-17 16:10:27 51°13.637 2°56.019 4.6691 0.048675 0.361507 -1.232679
2012-02-17 16:11:28 51°13.637 2°56.019 4.8362 0.048572 0.360487 -1.232679
2012-02-17 16:12:27 51°13.636 2°56.018 4.8586 0.048572 0.360316 -1.232679
2012-02-17 16:13:28 51°13.636 2°56.019 4.9697 0.04847 0.359383 -1.232679